createdAt,value
2019-05-13T00:01:34.681Z,5.60
2019-05-13T00:04:04.127Z,5.50
2019-05-13T00:06:34.400Z,5.40
2019-05-13T00:09:05.769Z,5.40
2019-05-13T00:11:34.727Z,5.30
2019-05-13T00:14:04.403Z,5.20
2019-05-13T00:16:34.181Z,5.20
2019-05-13T00:19:04.140Z,5.10
2019-05-13T00:21:33.831Z,5.10
2019-05-13T00:24:04.113Z,5.00
2019-05-13T00:26:33.778Z,5.00
2019-05-13T00:29:04.216Z,5.10
2019-05-13T00:31:33.643Z,5.10
2019-05-13T00:34:03.727Z,5.10
2019-05-13T00:36:33.697Z,5.10
2019-05-13T00:39:03.929Z,5.10
2019-05-13T00:41:33.722Z,5.00
2019-05-13T00:44:03.871Z,5.00
2019-05-13T00:46:34.019Z,4.90
2019-05-13T00:49:04.747Z,4.90
2019-05-13T00:51:33.875Z,4.80
2019-05-13T00:54:04.401Z,4.70
2019-05-13T00:56:34.498Z,4.60
2019-05-13T00:59:03.899Z,4.60
2019-05-13T01:01:33.582Z,4.60
2019-05-13T01:04:03.934Z,4.50
2019-05-13T01:06:34.165Z,4.40
2019-05-13T01:09:05.399Z,4.40
2019-05-13T01:11:34.389Z,4.40
2019-05-13T01:14:04.255Z,4.40
2019-05-13T01:16:34.048Z,4.30
2019-05-13T01:19:04.217Z,4.30
2019-05-13T01:21:34.556Z,4.20
2019-05-13T01:24:03.869Z,4.20
2019-05-13T01:26:33.763Z,4.20
2019-05-13T01:29:04.230Z,4.20
2019-05-13T01:31:34.375Z,4.10
2019-05-13T01:34:04.156Z,4.10
2019-05-13T01:36:34.097Z,4.10
2019-05-13T01:39:04.975Z,4.10
2019-05-13T01:41:34.041Z,4.00
2019-05-13T01:44:04.005Z,4.00
2019-05-13T01:46:34.620Z,3.90
2019-05-13T01:49:05.053Z,3.90
2019-05-13T01:51:33.950Z,3.90
2019-05-13T01:54:04.157Z,3.80
2019-05-13T01:56:33.984Z,3.70
2019-05-13T01:59:03.613Z,3.70
2019-05-13T02:01:33.687Z,3.70
2019-05-13T02:04:04.105Z,3.70
2019-05-13T02:06:33.678Z,3.60
2019-05-13T02:09:03.946Z,3.60
2019-05-13T02:11:34.157Z,3.60
2019-05-13T02:14:05.436Z,3.50
2019-05-13T02:16:34.101Z,3.50
2019-05-13T02:19:03.869Z,3.50
2019-05-13T02:21:33.788Z,3.40
2019-05-13T02:24:04.289Z,3.40
2019-05-13T02:26:34.579Z,3.40
2019-05-13T02:29:04.072Z,3.40
2019-05-13T02:31:45.147Z,3.40
2019-05-13T02:34:04.455Z,3.40
2019-05-13T02:36:33.462Z,3.40
2019-05-13T02:39:02.851Z,3.40
2019-05-13T02:41:34.085Z,3.30
2019-05-13T02:44:03.508Z,3.30
2019-05-13T02:46:33.878Z,3.20
2019-05-13T02:49:03.353Z,3.10
2019-05-13T02:51:32.922Z,3.10
2019-05-13T02:54:03.660Z,3.10
2019-05-13T02:56:33.180Z,3.00
2019-05-13T02:59:03.907Z,3.00
2019-05-13T03:01:33.443Z,3.00
2019-05-13T03:04:03.207Z,3.00
2019-05-13T03:06:33.413Z,3.00
2019-05-13T03:09:03.127Z,3.00
2019-05-13T03:11:33.197Z,3.10
2019-05-13T03:14:03.590Z,3.00
2019-05-13T03:16:57.222Z,3.10
2019-05-13T03:19:26.091Z,3.10
2019-05-13T03:21:54.876Z,3.10
2019-05-13T03:24:23.667Z,3.10
2019-05-13T03:26:53.422Z,3.10
2019-05-13T03:29:22.541Z,3.00
2019-05-13T03:31:55.889Z,3.00
2019-05-13T03:34:26.780Z,2.90
2019-05-13T03:36:56.840Z,2.90
2019-05-13T03:39:24.464Z,2.90
2019-05-13T03:41:56.032Z,2.80
2019-05-13T03:44:27.447Z,2.80
2019-05-13T03:46:58.600Z,2.80
2019-05-13T03:49:32.303Z,2.70
2019-05-13T03:52:03.014Z,2.70
2019-05-13T03:54:32.805Z,2.70
2019-05-13T03:57:03.618Z,2.70
2019-05-13T03:59:33.501Z,2.70
2019-05-13T04:02:02.946Z,2.70
2019-05-13T04:04:32.731Z,2.70
2019-05-13T04:07:02.857Z,2.70
2019-05-13T04:09:36.117Z,2.70
2019-05-13T04:12:03.396Z,2.70
2019-05-13T04:14:33.368Z,2.80
2019-05-13T04:17:03.137Z,2.80
2019-05-13T04:19:33.700Z,2.80
2019-05-13T04:22:02.945Z,2.80
2019-05-13T04:24:33.508Z,2.90
2019-05-13T04:27:03.175Z,2.90
2019-05-13T04:29:33.256Z,2.90
2019-05-13T04:32:02.681Z,2.90
2019-05-13T04:34:33.604Z,3.00
2019-05-13T04:37:02.975Z,3.00
2019-05-13T04:39:44.514Z,3.00
2019-05-13T04:42:02.908Z,3.00
2019-05-13T04:44:32.607Z,3.00
2019-05-13T04:47:03.750Z,3.00
2019-05-13T04:49:32.956Z,3.00
2019-05-13T04:52:03.350Z,3.00
2019-05-13T04:54:33.478Z,3.00
2019-05-13T04:57:03.223Z,3.10
2019-05-13T04:59:34.578Z,3.20
2019-05-13T05:02:51.209Z,3.30
2019-05-13T05:06:03.576Z,3.40
2019-05-13T05:08:52.499Z,3.60
2019-05-13T05:11:43.884Z,3.80
2019-05-13T05:14:38.122Z,4.00
2019-05-13T05:17:52.687Z,4.20
2019-05-13T05:20:32.533Z,4.30
2019-05-13T05:23:42.147Z,4.30
2019-05-13T05:26:52.191Z,4.20
2019-05-13T05:29:48.113Z,4.30
2019-05-13T05:32:51.650Z,4.50
2019-05-13T05:35:47.993Z,4.60
2019-05-13T05:38:35.228Z,4.70
2019-05-13T05:41:07.021Z,4.70
2019-05-13T05:43:38.296Z,4.80
2019-05-13T05:46:08.116Z,4.70
2019-05-13T05:48:41.896Z,4.80
2019-05-13T05:51:13.060Z,4.80
2019-05-13T05:53:44.170Z,4.90
2019-05-13T05:56:16.121Z,5.10
2019-05-13T05:58:46.813Z,5.40
2019-05-13T06:01:17.050Z,5.70
2019-05-13T06:03:46.001Z,6.00
2019-05-13T06:06:15.408Z,6.20
2019-05-13T06:08:44.421Z,6.30
2019-05-13T06:11:13.926Z,6.30
2019-05-13T06:13:43.103Z,6.40
2019-05-13T06:16:12.367Z,6.50
2019-05-13T06:18:41.641Z,6.60
2019-05-13T06:21:12.209Z,6.80
2019-05-13T06:23:41.945Z,7.00
2019-05-13T06:26:12.565Z,7.40
2019-05-13T06:28:41.916Z,7.70
2019-05-13T06:31:12.431Z,7.90
2019-05-13T06:33:42.209Z,8.20
2019-05-13T06:36:11.449Z,8.60
2019-05-13T06:38:42.423Z,9.10
2019-05-13T06:41:14.329Z,9.60
2019-05-13T06:43:41.931Z,10.00
2019-05-13T06:46:12.370Z,10.40
2019-05-13T06:51:11.635Z,11.50
2019-05-13T06:53:41.443Z,12.10
2019-05-13T06:56:12.141Z,12.60
2019-05-13T06:58:41.643Z,13.00
2019-05-13T07:01:11.543Z,13.10
2019-05-13T07:03:42.004Z,13.20
2019-05-13T07:06:12.383Z,13.30
2019-05-13T07:08:41.831Z,13.40
2019-05-13T07:11:19.528Z,13.50
2019-05-13T07:13:42.254Z,13.60
2019-05-13T07:16:11.901Z,13.90
2019-05-13T07:18:41.562Z,14.10
2019-05-13T07:21:12.506Z,14.40
2019-05-13T07:23:42.298Z,14.50
2019-05-13T07:26:12.314Z,14.50
2019-05-13T07:28:42.917Z,14.60
2019-05-13T07:31:12.046Z,14.70
2019-05-13T07:33:42.627Z,14.80
2019-05-13T07:36:12.755Z,14.90
2019-05-13T07:38:41.844Z,15.20
2019-05-13T07:41:12.042Z,15.40
2019-05-13T07:43:42.667Z,15.40
2019-05-13T07:46:12.599Z,15.40
2019-05-13T07:48:41.826Z,15.50
2019-05-13T07:51:11.975Z,15.40
2019-05-13T07:53:42.568Z,15.50
2019-05-13T07:56:12.625Z,15.50
2019-05-13T07:58:42.001Z,15.60
2019-05-13T08:01:12.186Z,15.80
2019-05-13T08:03:42.169Z,16.00
2019-05-13T08:06:11.309Z,16.20
2019-05-13T08:08:41.719Z,16.20
2019-05-13T08:11:12.887Z,16.00
2019-05-13T08:13:44.620Z,15.80
2019-05-13T08:16:12.422Z,15.80
2019-05-13T08:18:43.656Z,15.80
2019-05-13T08:21:12.425Z,15.90
2019-05-13T08:23:41.800Z,16.10
2019-05-13T08:26:12.430Z,16.30
2019-05-13T08:28:57.051Z,16.60
2019-05-13T08:31:12.122Z,16.80
2019-05-13T08:33:42.394Z,16.90
2019-05-13T08:36:12.270Z,17.10
2019-05-13T08:38:43.179Z,17.10
2019-05-13T08:41:18.961Z,17.10
2019-05-13T08:43:42.764Z,16.90
2019-05-13T08:46:12.507Z,17.00
2019-05-13T08:48:42.906Z,17.20
2019-05-13T08:51:11.899Z,17.40
2019-05-13T08:53:42.435Z,17.50
2019-05-13T08:56:12.262Z,17.40
2019-05-13T08:58:41.395Z,17.40
2019-05-13T09:01:12.334Z,17.50
2019-05-13T09:03:41.862Z,17.70
2019-05-13T09:06:11.657Z,18.00
2019-05-13T09:08:42.444Z,18.20
2019-05-13T09:11:12.101Z,18.30
2019-05-13T09:13:42.289Z,18.40
2019-05-13T09:16:13.341Z,18.30
2019-05-13T09:18:42.719Z,18.30
2019-05-13T09:21:11.886Z,18.30
2019-05-13T09:23:41.427Z,18.20
2019-05-13T09:26:11.929Z,18.30
2019-05-13T09:28:41.791Z,18.60
2019-05-13T09:31:12.617Z,18.80
2019-05-13T09:33:41.838Z,18.90
2019-05-13T09:36:12.533Z,19.10
2019-05-13T09:38:41.965Z,19.30
2019-05-13T09:41:12.310Z,19.30
2019-05-13T09:43:42.058Z,19.30
2019-05-13T09:46:11.863Z,19.00
2019-05-13T09:48:42.426Z,19.00
2019-05-13T09:51:12.435Z,19.20
2019-05-13T09:53:41.756Z,19.10
2019-05-13T09:56:11.842Z,18.70
2019-05-13T09:58:42.053Z,18.60
2019-05-13T10:01:12.338Z,18.90
2019-05-13T10:03:53.996Z,19.50
2019-05-13T10:06:12.837Z,20.20
2019-05-13T10:08:42.131Z,20.60
2019-05-13T10:11:12.335Z,20.50
2019-05-13T10:13:41.317Z,20.40
2019-05-13T10:16:12.432Z,20.40
2019-05-13T10:18:42.041Z,20.40
2019-05-13T10:21:11.301Z,20.60
2019-05-13T10:23:41.837Z,20.80
2019-05-13T10:26:13.486Z,21.10
2019-05-13T10:28:42.996Z,21.50
2019-05-13T10:31:12.143Z,21.60
2019-05-13T10:33:42.054Z,21.40
2019-05-13T10:36:12.139Z,21.20
2019-05-13T10:38:41.581Z,20.80
2019-05-13T10:41:12.033Z,20.50
2019-05-13T10:43:44.114Z,20.20
2019-05-13T10:46:12.823Z,20.00
2019-05-13T10:48:42.281Z,20.00
2019-05-13T10:51:13.123Z,20.50
2019-05-13T10:53:42.681Z,20.80
2019-05-13T10:56:11.889Z,20.80
2019-05-13T10:58:42.735Z,20.40
2019-05-13T11:01:12.053Z,19.80
2019-05-13T11:03:42.860Z,19.10
2019-05-13T11:06:11.829Z,18.40
2019-05-13T11:08:42.189Z,17.90
2019-05-13T11:11:12.941Z,17.80
2019-05-13T11:13:56.410Z,17.60
2019-05-13T11:16:12.717Z,17.40
2019-05-13T11:18:41.745Z,17.10
2019-05-13T11:21:13.076Z,16.70
2019-05-13T11:23:41.261Z,16.40
2019-05-13T11:26:10.112Z,16.50
2019-05-13T11:28:42.915Z,17.00
2019-05-13T11:31:11.402Z,17.70
2019-05-13T11:33:42.494Z,18.50
2019-05-13T11:36:12.870Z,19.20
2019-05-13T11:38:43.254Z,19.50
2019-05-13T11:41:12.271Z,19.50
2019-05-13T11:43:41.512Z,19.40
2019-05-13T11:46:10.342Z,19.60
2019-05-13T11:48:39.117Z,19.80
2019-05-13T11:51:07.968Z,20.00
2019-05-13T11:53:37.925Z,20.30
2019-05-13T11:56:07.157Z,20.50
2019-05-13T11:58:35.943Z,20.80
2019-05-13T12:01:05.811Z,21.10
2019-05-13T12:03:34.677Z,21.00
2019-05-13T12:06:03.633Z,21.10
2019-05-13T12:08:34.311Z,21.30
2019-05-13T12:11:05.580Z,21.10
2019-05-13T12:16:03.750Z,20.30
2019-05-13T12:18:32.795Z,20.80
2019-05-13T12:21:03.233Z,21.20
2019-05-13T12:23:32.044Z,20.90
2019-05-13T12:26:04.166Z,20.30
2019-05-13T12:28:31.629Z,19.90
2019-05-13T12:31:03.262Z,19.50
2019-05-13T12:33:32.594Z,19.10
2019-05-13T12:36:02.230Z,19.10
2019-05-13T12:38:33.172Z,19.10
2019-05-13T12:41:05.028Z,18.70
2019-05-13T12:43:32.918Z,18.50
2019-05-13T12:46:02.562Z,18.70
2019-05-13T12:48:31.780Z,19.00
2019-05-13T12:51:03.026Z,19.60
2019-05-13T12:53:32.473Z,20.40
2019-05-13T12:56:03.342Z,20.70
2019-05-13T12:58:33.852Z,20.70
2019-05-13T13:01:03.276Z,20.90
2019-05-13T13:03:32.351Z,21.20
2019-05-13T13:06:22.438Z,20.90
2019-05-13T13:08:42.819Z,20.40
2019-05-13T13:11:02.759Z,19.70
2019-05-13T13:13:54.162Z,19.70
2019-05-13T13:16:03.616Z,19.80
2019-05-13T13:18:32.788Z,20.20
2019-05-13T13:21:06.836Z,20.80
2019-05-13T13:23:34.030Z,21.40
2019-05-13T13:26:03.434Z,22.10
2019-05-13T13:28:34.142Z,22.20
2019-05-13T13:31:04.338Z,22.50
2019-05-13T13:33:34.511Z,23.10
2019-05-13T13:36:05.278Z,23.40
2019-05-13T13:38:34.217Z,23.80
2019-05-13T13:41:04.192Z,23.30
2019-05-13T13:43:36.884Z,22.30
2019-05-13T13:46:08.644Z,20.90
2019-05-13T13:48:34.964Z,20.00
2019-05-13T13:51:05.013Z,20.20
2019-05-13T13:53:34.578Z,20.10
2019-05-13T13:56:03.685Z,20.80
2019-05-13T13:58:32.904Z,22.00
2019-05-13T14:01:11.617Z,23.10
2019-05-13T14:03:34.024Z,24.20
2019-05-13T14:06:06.191Z,24.60
2019-05-13T14:08:34.227Z,23.50
2019-05-13T14:11:03.238Z,21.70
2019-05-13T14:13:32.555Z,20.80
2019-05-13T14:16:01.980Z,20.80
2019-05-13T14:18:31.645Z,21.10
2019-05-13T14:21:03.140Z,21.70
2019-05-13T14:23:31.839Z,22.40
2019-05-13T14:26:01.049Z,22.10
2019-05-13T14:28:32.505Z,21.20
2019-05-13T14:31:01.961Z,20.90
2019-05-13T14:33:32.736Z,21.60
2019-05-13T14:36:01.734Z,22.40
2019-05-13T14:38:32.595Z,22.00
2019-05-13T14:41:11.881Z,21.50
2019-05-13T14:43:32.569Z,20.90
2019-05-13T14:46:02.507Z,20.10
2019-05-13T14:48:32.900Z,19.30
2019-05-13T14:51:02.259Z,19.30
2019-05-13T14:53:32.337Z,20.20
2019-05-13T14:56:03.086Z,21.60
2019-05-13T14:58:32.748Z,22.80
2019-05-13T15:01:14.766Z,23.60
2019-05-13T15:03:32.726Z,24.00
2019-05-13T15:06:02.179Z,24.20
2019-05-13T15:08:32.831Z,23.80
2019-05-13T15:11:02.104Z,24.00
2019-05-13T15:13:32.013Z,24.60
2019-05-13T15:16:01.475Z,24.60
2019-05-13T15:18:32.678Z,23.80
2019-05-13T15:21:01.919Z,23.70
2019-05-13T15:23:31.676Z,23.70
2019-05-13T15:26:02.256Z,23.10
2019-05-13T15:28:31.847Z,22.00
2019-05-13T15:31:01.115Z,20.80
2019-05-13T15:33:32.663Z,19.70
2019-05-13T15:36:02.001Z,19.00
2019-05-13T15:38:32.075Z,19.20
2019-05-13T15:41:01.963Z,20.30
2019-05-13T15:43:31.871Z,21.90
2019-05-13T15:46:01.761Z,23.50
2019-05-13T15:48:31.517Z,24.30
2019-05-13T15:51:02.048Z,23.90
2019-05-13T15:53:32.150Z,22.80
2019-05-13T15:56:02.669Z,21.10
2019-05-13T15:58:38.908Z,19.90
2019-05-13T16:01:02.915Z,18.70
2019-05-13T16:03:32.190Z,18.10
2019-05-13T16:06:01.821Z,18.50
2019-05-13T16:08:31.825Z,19.80
2019-05-13T16:11:02.199Z,21.20
2019-05-13T16:13:31.965Z,22.30
2019-05-13T16:16:01.672Z,22.80
2019-05-13T16:18:31.631Z,23.30
2019-05-13T16:21:01.544Z,23.50
2019-05-13T16:23:32.369Z,23.40
2019-05-13T16:26:01.926Z,23.40
2019-05-13T16:28:32.538Z,23.80
2019-05-13T16:31:02.447Z,23.80
2019-05-13T16:33:31.592Z,23.80
2019-05-13T16:36:02.545Z,23.80
2019-05-13T16:38:32.895Z,23.80
2019-05-13T16:41:01.423Z,23.10
2019-05-13T16:43:31.972Z,22.20
2019-05-13T16:46:00.888Z,21.30
2019-05-13T16:48:32.126Z,20.50
2019-05-13T16:51:00.276Z,19.70
2019-05-13T16:53:31.515Z,19.30
2019-05-13T16:56:01.693Z,18.90
2019-05-13T16:58:32.426Z,18.50
2019-05-13T17:01:02.717Z,18.10
2019-05-13T17:03:32.110Z,17.60
2019-05-13T17:06:02.079Z,17.30
2019-05-13T17:08:32.021Z,16.90
2019-05-13T17:11:02.174Z,16.60
2019-05-13T17:13:31.603Z,16.40
2019-05-13T17:16:01.585Z,16.10
2019-05-13T17:18:32.376Z,15.90
2019-05-13T17:21:01.531Z,15.70
2019-05-13T17:23:30.426Z,15.60
2019-05-13T17:25:59.314Z,15.50
2019-05-13T17:28:30.969Z,15.30
2019-05-13T17:30:58.988Z,15.30
2019-05-13T17:33:27.788Z,15.20
2019-05-13T17:35:56.544Z,15.20
2019-05-13T17:38:25.331Z,15.20
2019-05-13T17:40:54.356Z,15.10
2019-05-13T17:43:23.519Z,15.00
2019-05-13T17:45:52.472Z,14.80
2019-05-13T17:48:28.496Z,14.70
2019-05-13T17:50:52.205Z,14.60
2019-05-13T17:53:21.649Z,14.50
2019-05-13T17:55:51.633Z,14.30
2019-05-13T17:58:22.169Z,14.20
2019-05-13T18:00:52.073Z,14.10
2019-05-13T18:03:21.283Z,14.00
2019-05-13T18:05:51.510Z,14.00
2019-05-13T18:08:20.532Z,13.90
2019-05-13T18:10:51.311Z,13.90
2019-05-13T18:13:21.513Z,13.90
2019-05-13T18:15:50.485Z,13.80
2019-05-13T18:18:21.418Z,13.70
2019-05-13T18:20:52.061Z,13.70
2019-05-13T18:23:21.239Z,13.70
2019-05-13T18:25:51.463Z,13.60
2019-05-13T18:28:28.608Z,13.60
2019-05-13T18:30:51.563Z,13.50
2019-05-13T18:33:21.098Z,13.40
2019-05-13T18:35:52.410Z,13.30
2019-05-13T18:38:21.146Z,13.20
2019-05-13T18:40:52.383Z,13.10
2019-05-13T18:43:21.523Z,13.10
2019-05-13T18:45:52.636Z,13.10
2019-05-13T18:48:21.907Z,13.00
2019-05-13T18:50:52.353Z,13.00
2019-05-13T18:53:21.623Z,12.90
2019-05-13T18:55:52.459Z,12.70
2019-05-13T18:58:22.203Z,12.50
2019-05-13T19:00:52.226Z,12.40
2019-05-13T19:03:21.935Z,12.40
2019-05-13T19:05:51.075Z,12.30
2019-05-13T19:08:21.406Z,12.10
2019-05-13T19:10:52.193Z,12.00
2019-05-13T19:13:21.750Z,12.00
2019-05-13T19:15:51.719Z,11.90
2019-05-13T19:18:21.473Z,11.80
2019-05-13T19:20:51.354Z,11.70
2019-05-13T19:23:20.247Z,11.60
2019-05-13T19:25:51.212Z,11.50
2019-05-13T19:28:22.123Z,11.40
2019-05-13T19:30:51.630Z,11.30
2019-05-13T19:33:22.074Z,11.20
2019-05-13T19:35:51.818Z,11.00
2019-05-13T19:38:21.202Z,10.90
2019-05-13T19:40:50.193Z,10.80
2019-05-13T19:43:19.015Z,10.80
2019-05-13T19:45:47.795Z,10.80
2019-05-13T19:48:16.599Z,10.70
2019-05-13T19:50:45.388Z,10.70
2019-05-13T19:53:14.213Z,10.60
2019-05-13T19:55:43.254Z,10.60
2019-05-13T19:58:12.508Z,10.60
2019-05-13T20:00:42.453Z,10.50
2019-05-13T20:03:11.849Z,10.50
2019-05-13T20:05:41.564Z,10.40
2019-05-13T20:08:10.669Z,10.30
2019-05-13T20:10:42.143Z,10.30
2019-05-13T20:13:11.287Z,10.20
2019-05-13T20:15:41.259Z,10.20
2019-05-13T20:18:12.184Z,10.10
2019-05-13T20:20:41.333Z,10.00
2019-05-13T20:23:12.044Z,10.00
2019-05-13T20:25:41.739Z,10.00
2019-05-13T20:28:11.578Z,9.90
2019-05-13T20:30:41.829Z,9.90
2019-05-13T20:33:11.889Z,9.80
2019-05-13T20:35:42.023Z,9.80
2019-05-13T20:38:11.582Z,9.70
2019-05-13T20:40:41.388Z,9.70
2019-05-13T20:43:11.831Z,9.60
2019-05-13T20:45:42.095Z,9.50
2019-05-13T20:48:11.955Z,9.40
2019-05-13T20:50:41.332Z,9.40
2019-05-13T20:53:11.524Z,9.30
2019-05-13T20:55:41.763Z,9.20
2019-05-13T20:58:12.783Z,9.00
2019-05-13T21:00:42.327Z,9.00
2019-05-13T21:03:11.771Z,8.80
2019-05-13T21:05:41.554Z,8.70
2019-05-13T21:08:10.758Z,8.70
2019-05-13T21:10:41.979Z,8.60
2019-05-13T21:13:12.183Z,8.50
2019-05-13T21:15:42.399Z,8.40
2019-05-13T21:18:11.680Z,8.40
2019-05-13T21:20:41.011Z,8.30
2019-05-13T21:23:11.286Z,8.30
2019-05-13T21:25:41.853Z,8.20
2019-05-13T21:28:11.424Z,8.20
2019-05-13T21:30:41.995Z,8.20
2019-05-13T21:33:11.499Z,8.20
2019-05-13T21:35:41.917Z,8.10
2019-05-13T21:38:11.353Z,8.00
2019-05-13T21:40:41.566Z,8.00
2019-05-13T21:43:10.693Z,7.90
2019-05-13T21:45:41.088Z,7.90
2019-05-13T21:48:11.004Z,7.80
2019-05-13T21:50:41.395Z,7.70
2019-05-13T21:53:12.275Z,7.50
2019-05-13T21:55:41.395Z,7.40
2019-05-13T21:58:11.408Z,7.30
2019-05-13T22:00:42.961Z,7.20
2019-05-13T22:03:11.819Z,7.10
2019-05-13T22:05:40.861Z,7.10
2019-05-13T22:08:12.029Z,7.00
2019-05-13T22:10:41.634Z,7.00
2019-05-13T22:13:11.864Z,7.00
2019-05-13T22:15:41.611Z,7.00
2019-05-13T22:18:11.319Z,7.00
2019-05-13T22:20:49.753Z,6.90
2019-05-13T22:23:11.979Z,6.90
2019-05-13T22:25:43.392Z,6.80
2019-05-13T22:28:11.854Z,6.80
2019-05-13T22:30:41.217Z,6.80
2019-05-13T22:33:12.220Z,6.80
2019-05-13T22:35:41.611Z,6.80
2019-05-13T22:38:12.241Z,6.80
2019-05-13T22:40:42.014Z,6.80
2019-05-13T22:43:12.122Z,6.90
2019-05-13T22:45:41.930Z,6.80
2019-05-13T22:48:12.057Z,6.80
2019-05-13T22:50:42.233Z,6.70
2019-05-13T22:53:12.047Z,6.60
2019-05-13T22:55:41.829Z,6.50
2019-05-13T22:58:11.084Z,6.40
2019-05-13T23:00:42.161Z,6.40
2019-05-13T23:03:10.512Z,6.40
2019-05-13T23:05:41.479Z,6.30
2019-05-13T23:08:11.308Z,6.30
2019-05-13T23:10:42.103Z,6.20
2019-05-13T23:13:10.685Z,6.20
2019-05-13T23:15:39.606Z,6.30
2019-05-13T23:18:08.456Z,6.20
2019-05-13T23:20:37.231Z,6.20
2019-05-13T23:23:05.993Z,6.20
2019-05-13T23:25:34.773Z,6.20
2019-05-13T23:28:03.569Z,6.20
2019-05-13T23:30:32.674Z,6.20
2019-05-13T23:33:02.193Z,6.10
2019-05-13T23:35:32.232Z,6.10
2019-05-13T23:38:01.615Z,6.00
2019-05-13T23:40:31.624Z,6.00
2019-05-13T23:43:02.030Z,6.00
2019-05-13T23:45:31.271Z,5.90
2019-05-13T23:48:01.625Z,5.90
2019-05-13T23:50:32.131Z,5.90
2019-05-13T23:53:01.106Z,5.90
2019-05-13T23:55:31.981Z,5.90
2019-05-13T23:58:01.806Z,5.90
